sensor_id;sensor_type;location;lat;lon;timestamp;pressure;altitude;pressure_sealevel;temperature
53512;BMP280;39392;52.832;13.816;2023-07-20T00:01:50;100851.91;;;25.78
53512;BMP280;39392;52.832;13.816;2023-07-20T00:04:17;100852.75;;;25.78
53512;BMP280;39392;52.832;13.816;2023-07-20T00:06:44;100852.56;;;25.80
53512;BMP280;39392;52.832;13.816;2023-07-20T00:09:11;100850.66;;;25.80
53512;BMP280;39392;52.832;13.816;2023-07-20T00:11:38;100850.66;;;25.80
53512;BMP280;39392;52.832;13.816;2023-07-20T00:14:05;100848.97;;;25.79
53512;BMP280;39392;52.832;13.816;2023-07-20T00:16:32;100848.97;;;25.79
53512;BMP280;39392;52.832;13.816;2023-07-20T00:18:59;100851.72;;;25.79
53512;BMP280;39392;52.832;13.816;2023-07-20T00:21:25;100849.81;;;25.80
53512;BMP280;39392;52.832;13.816;2023-07-20T00:23:52;100854.25;;;25.81
53512;BMP280;39392;52.832;13.816;2023-07-20T00:26:19;100855.31;;;25.80
53512;BMP280;39392;52.832;13.816;2023-07-20T00:28:46;100858.88;;;25.80
53512;BMP280;39392;52.832;13.816;2023-07-20T00:31:13;100852.75;;;25.78
53512;BMP280;39392;52.832;13.816;2023-07-20T00:33:39;100857.22;;;25.79
53512;BMP280;39392;52.832;13.816;2023-07-20T00:36:06;100857.22;;;25.79
53512;BMP280;39392;52.832;13.816;2023-07-20T00:38:33;100865.44;;;25.79
53512;BMP280;39392;52.832;13.816;2023-07-20T00:40:59;100859.97;;;25.79
53512;BMP280;39392;52.832;13.816;2023-07-20T00:43:26;100862.91;;;25.78
53512;BMP280;39392;52.832;13.816;2023-07-20T00:45:52;100870.06;;;25.79
53512;BMP280;39392;52.832;13.816;2023-07-20T00:48:19;100869.22;;;25.78
53512;BMP280;39392;52.832;13.816;2023-07-20T00:50:46;100867.31;;;25.79
53512;BMP280;39392;52.832;13.816;2023-07-20T00:53:13;100864.81;;;25.77
53512;BMP280;39392;52.832;13.816;2023-07-20T00:55:39;100861.00;;;25.78
53512;BMP280;39392;52.832;13.816;2023-07-20T00:58:06;100856.56;;;25.77
53512;BMP280;39392;52.832;13.816;2023-07-20T01:00:33;100855.72;;;25.77
53512;BMP280;39392;52.832;13.816;2023-07-20T01:02:59;100858.47;;;25.77
53512;BMP280;39392;52.832;13.816;2023-07-20T01:05:30;100856.56;;;25.77
53512;BMP280;39392;52.832;13.816;2023-07-20T01:08:05;100856.56;;;25.77
53512;BMP280;39392;52.832;13.816;2023-07-20T01:10:36;100863.09;;;25.76
53512;BMP280;39392;52.832;13.816;2023-07-20T01:13:06;100863.28;;;25.75
53512;BMP280;39392;52.832;13.816;2023-07-20T01:15:33;100855.72;;;25.77
53512;BMP280;39392;52.832;13.816;2023-07-20T01:18:00;100856.56;;;25.77
53512;BMP280;39392;52.832;13.816;2023-07-20T01:20:28;100854.03;;;25.76
53512;BMP280;39392;52.832;13.816;2023-07-20T01:33:30;100851.72;;;25.73
53512;BMP280;39392;52.832;13.816;2023-07-20T01:35:58;100850.03;;;25.72
53512;BMP280;39392;52.832;13.816;2023-07-20T01:38:26;100854.44;;;25.73
53512;BMP280;39392;52.832;13.816;2023-07-20T01:40:53;100860.56;;;25.75
53512;BMP280;39392;52.832;13.816;2023-07-20T01:43:19;100861.41;;;25.75
53512;BMP280;39392;52.832;13.816;2023-07-20T01:45:46;100856.97;;;25.74
53512;BMP280;39392;52.832;13.816;2023-07-20T01:48:13;100844.09;;;25.75
53512;BMP280;39392;52.832;13.816;2023-07-20T01:50:39;100854.03;;;25.76
53512;BMP280;39392;52.832;13.816;2023-07-20T01:53:06;100855.94;;;25.75
53512;BMP280;39392;52.832;13.816;2023-07-20T01:55:32;100853.19;;;25.75
53512;BMP280;39392;52.832;13.816;2023-07-20T01:57:59;100847.06;;;25.73
53512;BMP280;39392;52.832;13.816;2023-07-20T02:00:27;100841.78;;;25.72
53512;BMP280;39392;52.832;13.816;2023-07-20T02:02:53;100843.69;;;25.71
53512;BMP280;39392;52.832;13.816;2023-07-20T02:05:20;100851.06;;;25.71
53512;BMP280;39392;52.832;13.816;2023-07-20T02:07:47;100845.56;;;25.71
53512;BMP280;39392;52.832;13.816;2023-07-20T02:10:14;100850.88;;;25.72
53512;BMP280;39392;52.832;13.816;2023-07-20T02:12:40;100859.31;;;25.71
53512;BMP280;39392;52.832;13.816;2023-07-20T02:15:07;100864.59;;;25.72
53512;BMP280;39392;52.832;13.816;2023-07-20T02:17:34;100862.03;;;25.71
53512;BMP280;39392;52.832;13.816;2023-07-20T02:20:01;100865.84;;;25.70
53512;BMP280;39392;52.832;13.816;2023-07-20T02:22:28;100876.00;;;25.69
53512;BMP280;39392;52.832;13.816;2023-07-20T02:24:54;100867.16;;;25.67
53512;BMP280;39392;52.832;13.816;2023-07-20T02:27:21;100874.31;;;25.68
53512;BMP280;39392;52.832;13.816;2023-07-20T02:29:48;100875.41;;;25.67
53512;BMP280;39392;52.832;13.816;2023-07-20T02:32:14;100878.13;;;25.67
53512;BMP280;39392;52.832;13.816;2023-07-20T02:34:40;100872.66;;;25.67
53512;BMP280;39392;52.832;13.816;2023-07-20T02:37:07;100878.97;;;25.68
53512;BMP280;39392;52.832;13.816;2023-07-20T02:39:37;100878.97;;;25.68
53512;BMP280;39392;52.832;13.816;2023-07-20T02:42:03;100878.13;;;25.67
53512;BMP280;39392;52.832;13.816;2023-07-20T02:44:30;100883.63;;;25.67
53512;BMP280;39392;52.832;13.816;2023-07-20T02:46:57;100873.69;;;25.66
53512;BMP280;39392;52.832;13.816;2023-07-20T02:49:23;100875.41;;;25.67
53512;BMP280;39392;52.832;13.816;2023-07-20T02:51:50;100869.06;;;25.67
53512;BMP280;39392;52.832;13.816;2023-07-20T02:54:17;100871.81;;;25.67
53512;BMP280;39392;52.832;13.816;2023-07-20T02:56:43;100873.50;;;25.68
53512;BMP280;39392;52.832;13.816;2023-07-20T02:59:10;100873.69;;;25.66
53512;BMP280;39392;52.832;13.816;2023-07-20T03:01:36;100869.25;;;25.65
53512;BMP280;39392;52.832;13.816;2023-07-20T03:04:03;100870.94;;;25.66
53512;BMP280;39392;52.832;13.816;2023-07-20T03:06:30;100874.56;;;25.67
53512;BMP280;39392;52.832;13.816;2023-07-20T03:08:57;100871.81;;;25.67
53512;BMP280;39392;52.832;13.816;2023-07-20T03:11:24;100874.31;;;25.68
53512;BMP280;39392;52.832;13.816;2023-07-20T03:13:50;100871.81;;;25.67
53512;BMP280;39392;52.832;13.816;2023-07-20T03:16:17;100886.56;;;25.66
53512;BMP280;39392;52.832;13.816;2023-07-20T03:18:45;100884.66;;;25.66
53512;BMP280;39392;52.832;13.816;2023-07-20T03:21:11;100882.78;;;25.67
53512;BMP280;39392;52.832;13.816;2023-07-20T03:23:38;100884.06;;;25.64
53512;BMP280;39392;52.832;13.816;2023-07-20T03:26:05;100886.16;;;25.62
53512;BMP280;39392;52.832;13.816;2023-07-20T03:28:35;100879.63;;;25.63
53512;BMP280;39392;52.832;13.816;2023-07-20T03:31:01;100877.50;;;25.65
53512;BMP280;39392;52.832;13.816;2023-07-20T03:33:28;100883.81;;;25.66
53512;BMP280;39392;52.832;13.816;2023-07-20T03:35:55;100887.63;;;25.65
53512;BMP280;39392;52.832;13.816;2023-07-20T03:38:22;100887.63;;;25.65
53512;BMP280;39392;52.832;13.816;2023-07-20T03:40:52;100900.28;;;25.66
53512;BMP280;39392;52.832;13.816;2023-07-20T03:43:19;100893.97;;;25.65
53512;BMP280;39392;52.832;13.816;2023-07-20T03:45:46;100898.63;;;25.65
53512;BMP280;39392;52.832;13.816;2023-07-20T03:48:18;100903.28;;;25.64
53512;BMP280;39392;52.832;13.816;2023-07-20T03:50:45;100910.66;;;25.64
53512;BMP280;39392;52.832;13.816;2023-07-20T03:53:12;100910.66;;;25.64
53512;BMP280;39392;52.832;13.816;2023-07-20T03:55:39;100908.75;;;25.64
53512;BMP280;39392;52.832;13.816;2023-07-20T03:58:07;100910.66;;;25.64
53512;BMP280;39392;52.832;13.816;2023-07-20T04:00:34;100916.16;;;25.64
53512;BMP280;39392;52.832;13.816;2023-07-20T04:03:01;100911.72;;;25.63
53512;BMP280;39392;52.832;13.816;2023-07-20T04:05:28;100908.34;;;25.61
53512;BMP280;39392;52.832;13.816;2023-07-20T04:07:55;100921.84;;;25.62
53512;BMP280;39392;52.832;13.816;2023-07-20T04:10:21;100919.97;;;25.63
53512;BMP280;39392;52.832;13.816;2023-07-20T04:12:48;100930.06;;;25.62
53512;BMP280;39392;52.832;13.816;2023-07-20T04:15:14;100913.59;;;25.62
53512;BMP280;39392;52.832;13.816;2023-07-20T04:17:41;100919.09;;;25.62
53512;BMP280;39392;52.832;13.816;2023-07-20T04:20:08;100919.09;;;25.62
53512;BMP280;39392;52.832;13.816;2023-07-20T04:22:35;100913.41;;;25.64
53512;BMP280;39392;52.832;13.816;2023-07-20T04:25:02;100919.50;;;25.66
53512;BMP280;39392;52.832;13.816;2023-07-20T04:27:29;100911.28;;;25.66
53512;BMP280;39392;52.832;13.816;2023-07-20T04:29:57;100910.44;;;25.65
53512;BMP280;39392;52.832;13.816;2023-07-20T04:32:24;100904.94;;;25.65
53512;BMP280;39392;52.832;13.816;2023-07-20T04:34:51;100900.28;;;25.66
53512;BMP280;39392;52.832;13.816;2023-07-20T04:37:18;100898.38;;;25.66
53512;BMP280;39392;52.832;13.816;2023-07-20T04:39:44;100909.16;;;25.68
53512;BMP280;39392;52.832;13.816;2023-07-20T04:42:11;100903.69;;;25.68
53512;BMP280;39392;52.832;13.816;2023-07-20T04:44:37;100902.84;;;25.67
53512;BMP280;39392;52.832;13.816;2023-07-20T04:47:04;100913.59;;;25.69
53512;BMP280;39392;52.832;13.816;2023-07-20T04:49:30;100908.34;;;25.67
53512;BMP280;39392;52.832;13.816;2023-07-20T04:51:57;100919.31;;;25.67
53512;BMP280;39392;52.832;13.816;2023-07-20T04:54:23;100915.72;;;25.67
53512;BMP280;39392;52.832;13.816;2023-07-20T04:56:51;100918.47;;;25.67
53512;BMP280;39392;52.832;13.816;2023-07-20T04:59:17;100915.72;;;25.67
53512;BMP280;39392;52.832;13.816;2023-07-20T05:01:44;100922.91;;;25.68
53512;BMP280;39392;52.832;13.816;2023-07-20T05:04:13;100923.75;;;25.68
53512;BMP280;39392;52.832;13.816;2023-07-20T05:06:41;100919.31;;;25.67
53512;BMP280;39392;52.832;13.816;2023-07-20T05:25:34;100924.16;;;25.65
53512;BMP280;39392;52.832;13.816;2023-07-20T05:28:01;100928.81;;;25.65
53512;BMP280;39392;52.832;13.816;2023-07-20T05:30:28;100940.63;;;25.65
53512;BMP280;39392;52.832;13.816;2023-07-20T05:32:56;100933.22;;;25.66
53512;BMP280;39392;52.832;13.816;2023-07-20T05:35:23;100927.75;;;25.66
53512;BMP280;39392;52.832;13.816;2023-07-20T05:37:49;100923.09;;;25.66
53512;BMP280;39392;52.832;13.816;2023-07-20T05:40:16;100924.81;;;25.67
53512;BMP280;39392;52.832;13.816;2023-07-20T05:42:45;100929.44;;;25.67
53512;BMP280;39392;52.832;13.816;2023-07-20T05:45:12;100937.47;;;25.68
53512;BMP280;39392;52.832;13.816;2023-07-20T05:47:39;100948.03;;;25.71
53512;BMP280;39392;52.832;13.816;2023-07-20T05:50:06;100948.84;;;25.72
53512;BMP280;39392;52.832;13.816;2023-07-20T05:52:32;100943.38;;;25.72
53512;BMP280;39392;52.832;13.816;2023-07-20T05:54:59;100940.41;;;25.73
53512;BMP280;39392;52.832;13.816;2023-07-20T05:57:26;100938.28;;;25.75
53512;BMP280;39392;52.832;13.816;2023-07-20T05:59:52;100935.34;;;25.77
53512;BMP280;39392;52.832;13.816;2023-07-20T06:02:19;100939.97;;;25.76
53512;BMP280;39392;52.832;13.816;2023-07-20T06:04:46;100938.09;;;25.77
53512;BMP280;39392;52.832;13.816;2023-07-20T06:07:13;100942.53;;;25.78
53512;BMP280;39392;52.832;13.816;2023-07-20T06:09:40;100946.09;;;25.78
53512;BMP280;39392;52.832;13.816;2023-07-20T06:12:06;100940.63;;;25.78
53512;BMP280;39392;52.832;13.816;2023-07-20T06:14:33;100944.44;;;25.77
53512;BMP280;39392;52.832;13.816;2023-07-20T06:17:00;100947.16;;;25.77
53512;BMP280;39392;52.832;13.816;2023-07-20T06:19:26;100950.75;;;25.78
53512;BMP280;39392;52.832;13.816;2023-07-20T06:21:53;100953.50;;;25.78
53512;BMP280;39392;52.832;13.816;2023-07-20T06:24:20;100946.94;;;25.79
53512;BMP280;39392;52.832;13.816;2023-07-20T06:26:46;100954.34;;;25.78
53512;BMP280;39392;52.832;13.816;2023-07-20T06:29:13;100945.25;;;25.78
53512;BMP280;39392;52.832;13.816;2023-07-20T06:31:39;100941.44;;;25.79
53512;BMP280;39392;52.832;13.816;2023-07-20T06:34:06;100939.78;;;25.78
53512;BMP280;39392;52.832;13.816;2023-07-20T06:36:33;100953.31;;;25.79
53512;BMP280;39392;52.832;13.816;2023-07-20T06:38:59;100947.81;;;25.79
53512;BMP280;39392;52.832;13.816;2023-07-20T06:41:28;100948.84;;;25.78
53512;BMP280;39392;52.832;13.816;2023-07-20T06:43:58;100958.78;;;25.79
53512;BMP280;39392;52.832;13.816;2023-07-20T06:46:25;100957.09;;;25.78
53512;BMP280;39392;52.832;13.816;2023-07-20T06:48:53;100967.03;;;25.79
53512;BMP280;39392;52.832;13.816;2023-07-20T06:51:23;100963.41;;;25.79
53512;BMP280;39392;52.832;13.816;2023-07-20T06:53:50;100968.06;;;25.78
53512;BMP280;39392;52.832;13.816;2023-07-20T06:56:16;100966.16;;;25.79
53512;BMP280;39392;52.832;13.816;2023-07-20T06:58:43;100972.72;;;25.78
53512;BMP280;39392;52.832;13.816;2023-07-20T07:01:09;100973.56;;;25.78
53512;BMP280;39392;52.832;13.816;2023-07-20T07:03:36;100976.31;;;25.78
53512;BMP280;39392;52.832;13.816;2023-07-20T07:06:03;100971.88;;;25.77
53512;BMP280;39392;52.832;13.816;2023-07-20T07:08:30;100967.41;;;25.76
53512;BMP280;39392;52.832;13.816;2023-07-20T07:10:57;100969.97;;;25.78
53512;BMP280;39392;52.832;13.816;2023-07-20T07:13:23;100972.72;;;25.78
53512;BMP280;39392;52.832;13.816;2023-07-20T07:15:51;100979.06;;;25.78
53512;BMP280;39392;52.832;13.816;2023-07-20T07:18:18;100978.00;;;25.79
53512;BMP280;39392;52.832;13.816;2023-07-20T07:20:50;100975.28;;;25.79
53512;BMP280;39392;52.832;13.816;2023-07-20T07:23:17;100978.00;;;25.79
53512;BMP280;39392;52.832;13.816;2023-07-20T07:25:44;100973.38;;;25.80
53512;BMP280;39392;52.832;13.816;2023-07-20T07:28:10;100981.59;;;25.80
53512;BMP280;39392;52.832;13.816;2023-07-20T07:30:37;100978.00;;;25.79
53512;BMP280;39392;52.832;13.816;2023-07-20T07:33:05;100974.19;;;25.80
53512;BMP280;39392;52.832;13.816;2023-07-20T07:35:31;100977.78;;;25.81
53512;BMP280;39392;52.832;13.816;2023-07-20T07:37:59;100970.63;;;25.80
53512;BMP280;39392;52.832;13.816;2023-07-20T07:40:44;100964.06;;;25.81
53512;BMP280;39392;52.832;13.816;2023-07-20T07:43:10;100969.31;;;25.82
53512;BMP280;39392;52.832;13.816;2023-07-20T07:45:38;100972.06;;;25.82
53512;BMP280;39392;52.832;13.816;2023-07-20T07:48:05;100971.22;;;25.82
53512;BMP280;39392;52.832;13.816;2023-07-20T07:50:32;100966.56;;;25.82
53512;BMP280;39392;52.832;13.816;2023-07-20T07:53:00;100975.66;;;25.83
53512;BMP280;39392;52.832;13.816;2023-07-20T07:55:26;100980.53;;;25.81
53512;BMP280;39392;52.832;13.816;2023-07-20T07:57:53;100989.59;;;25.81
53512;BMP280;39392;52.832;13.816;2023-07-20T08:00:20;100990.44;;;25.82
53512;BMP280;39392;52.832;13.816;2023-07-20T08:02:46;100993.19;;;25.82
53512;BMP280;39392;52.832;13.816;2023-07-20T08:05:14;100981.16;;;25.83
53512;BMP280;39392;52.832;13.816;2023-07-20T08:07:41;100982.00;;;25.83
53512;BMP280;39392;52.832;13.816;2023-07-20T08:10:08;100981.38;;;25.81
53512;BMP280;39392;52.832;13.816;2023-07-20T08:12:34;100986.88;;;25.81
53512;BMP280;39392;52.832;13.816;2023-07-20T08:15:01;100991.28;;;25.82
53512;BMP280;39392;52.832;13.816;2023-07-20T08:17:28;100994.03;;;25.82
53512;BMP280;39392;52.832;13.816;2023-07-20T08:19:55;100986.63;;;25.83
53512;BMP280;39392;52.832;13.816;2023-07-20T08:22:21;100984.97;;;25.82
53512;BMP280;39392;52.832;13.816;2023-07-20T08:24:48;100996.78;;;25.82
53512;BMP280;39392;52.832;13.816;2023-07-20T08:27:14;100989.38;;;25.83
53512;BMP280;39392;52.832;13.816;2023-07-20T08:29:41;100985.78;;;25.82
53512;BMP280;39392;52.832;13.816;2023-07-20T08:32:07;100991.09;;;25.84
53512;BMP280;39392;52.832;13.816;2023-07-20T08:34:34;100993.84;;;25.84
53512;BMP280;39392;52.832;13.816;2023-07-20T08:37:02;100998.50;;;25.83
53512;BMP280;39392;52.832;13.816;2023-07-20T08:39:28;101000.16;;;25.85
53512;BMP280;39392;52.832;13.816;2023-07-20T08:41:55;101001.22;;;25.83
53512;BMP280;39392;52.832;13.816;2023-07-20T08:44:24;100990.44;;;25.82
53512;BMP280;39392;52.832;13.816;2023-07-20T08:46:50;101001.22;;;25.83
53512;BMP280;39392;52.832;13.816;2023-07-20T08:49:17;100999.53;;;25.82
53512;BMP280;39392;52.832;13.816;2023-07-20T08:51:45;100992.13;;;25.83
53512;BMP280;39392;52.832;13.816;2023-07-20T08:54:12;100993.00;;;25.83
53512;BMP280;39392;52.832;13.816;2023-07-20T08:56:39;100989.59;;;25.81
53512;BMP280;39392;52.832;13.816;2023-07-20T08:59:08;100995.94;;;25.82
53512;BMP280;39392;52.832;13.816;2023-07-20T09:01:35;100989.38;;;25.83
53512;BMP280;39392;52.832;13.816;2023-07-20T09:04:02;101003.34;;;25.81
53512;BMP280;39392;52.832;13.816;2023-07-20T09:06:29;100997.63;;;25.83
53512;BMP280;39392;52.832;13.816;2023-07-20T09:08:57;101003.97;;;25.83
53512;BMP280;39392;52.832;13.816;2023-07-20T09:11:24;100991.28;;;25.82
53512;BMP280;39392;52.832;13.816;2023-07-20T09:14:07;100992.13;;;25.83
53512;BMP280;39392;52.832;13.816;2023-07-20T09:16:49;100995.09;;;25.81
53512;BMP280;39392;52.832;13.816;2023-07-20T09:19:16;100981.16;;;25.83
53512;BMP280;39392;52.832;13.816;2023-07-20T09:21:44;100981.38;;;25.81
53512;BMP280;39392;52.832;13.816;2023-07-20T09:24:10;100988.53;;;25.82
53512;BMP280;39392;52.832;13.816;2023-07-20T09:26:41;100990.44;;;25.82
53512;BMP280;39392;52.832;13.816;2023-07-20T09:29:09;100995.09;;;25.81
53512;BMP280;39392;52.832;13.816;2023-07-20T09:31:36;100995.94;;;25.82
53512;BMP280;39392;52.832;13.816;2023-07-20T09:34:06;100993.19;;;25.82
53512;BMP280;39392;52.832;13.816;2023-07-20T09:36:36;100998.50;;;25.83
53512;BMP280;39392;52.832;13.816;2023-07-20T09:39:05;100994.69;;;25.85
53512;BMP280;39392;52.832;13.816;2023-07-20T09:41:41;100995.75;;;25.83
53512;BMP280;39392;52.832;13.816;2023-07-20T09:44:13;101012.22;;;25.83
53512;BMP280;39392;52.832;13.816;2023-07-20T09:46:46;100997.41;;;25.85
53512;BMP280;39392;52.832;13.816;2023-07-20T09:49:17;100993.84;;;25.84
53512;BMP280;39392;52.832;13.816;2023-07-20T09:51:47;100996.59;;;25.84
53512;BMP280;39392;52.832;13.816;2023-07-20T09:54:13;101002.06;;;25.84
53512;BMP280;39392;52.832;13.816;2023-07-20T09:56:40;100994.69;;;25.85
53512;BMP280;39392;52.832;13.816;2023-07-20T09:59:07;100999.31;;;25.84
53512;BMP280;39392;52.832;13.816;2023-07-20T10:01:34;101013.91;;;25.85
53512;BMP280;39392;52.832;13.816;2023-07-20T10:04:02;101016.84;;;25.83
53512;BMP280;39392;52.832;13.816;2023-07-20T10:06:30;101014.31;;;25.81
53512;BMP280;39392;52.832;13.816;2023-07-20T10:09:02;101020.44;;;25.83
53512;BMP280;39392;52.832;13.816;2023-07-20T10:11:35;101022.31;;;25.83
53512;BMP280;39392;52.832;13.816;2023-07-20T10:14:03;101020.44;;;25.83
53512;BMP280;39392;52.832;13.816;2023-07-20T10:16:33;101029.53;;;25.84
53512;BMP280;39392;52.832;13.816;2023-07-20T10:19:07;101033.31;;;25.83
53512;BMP280;39392;52.832;13.816;2023-07-20T10:21:42;101023.63;;;25.80
53512;BMP280;39392;52.832;13.816;2023-07-20T10:24:15;101025.31;;;25.81
53512;BMP280;39392;52.832;13.816;2023-07-20T10:26:43;101020.03;;;25.80
53512;BMP280;39392;52.832;13.816;2023-07-20T10:29:09;101019.81;;;25.81
53512;BMP280;39392;52.832;13.816;2023-07-20T10:31:37;101022.56;;;25.81
53512;BMP280;39392;52.832;13.816;2023-07-20T10:34:04;101018.97;;;25.81
53512;BMP280;39392;52.832;13.816;2023-07-20T10:36:30;101026.97;;;25.82
53512;BMP280;39392;52.832;13.816;2023-07-20T10:38:57;101029.94;;;25.81
53512;BMP280;39392;52.832;13.816;2023-07-20T10:41:28;101019.81;;;25.81
53512;BMP280;39392;52.832;13.816;2023-07-20T10:44:02;101024.47;;;25.81
53512;BMP280;39392;52.832;13.816;2023-07-20T10:49:03;101024.47;;;25.81
53512;BMP280;39392;52.832;13.816;2023-07-20T10:51:38;101019.81;;;25.81
53512;BMP280;39392;52.832;13.816;2023-07-20T10:54:07;101023.19;;;25.83
53512;BMP280;39392;52.832;13.816;2023-07-20T10:56:34;101024.88;;;25.85
53512;BMP280;39392;52.832;13.816;2023-07-20T10:59:00;101016.66;;;25.85
53512;BMP280;39392;52.832;13.816;2023-07-20T11:01:28;101009.25;;;25.85
53512;BMP280;39392;52.832;13.816;2023-07-20T11:03:57;101002.91;;;25.85
53512;BMP280;39392;52.832;13.816;2023-07-20T11:11:35;101011.56;;;25.88
53512;BMP280;39392;52.832;13.816;2023-07-20T11:14:08;100999.53;;;25.89
53512;BMP280;39392;52.832;13.816;2023-07-20T11:16:42;101006.91;;;25.89
53512;BMP280;39392;52.832;13.816;2023-07-20T11:19:19;100997.00;;;25.88
53512;BMP280;39392;52.832;13.816;2023-07-20T11:21:50;100997.19;;;25.86
53512;BMP280;39392;52.832;13.816;2023-07-20T11:24:28;101002.69;;;25.86
53512;BMP280;39392;52.832;13.816;2023-07-20T11:26:54;101001.63;;;25.87
53512;BMP280;39392;52.832;13.816;2023-07-20T11:29:22;101009.84;;;25.87
53512;BMP280;39392;52.832;13.816;2023-07-20T11:31:57;101014.31;;;25.88
53512;BMP280;39392;52.832;13.816;2023-07-20T11:34:27;101010.72;;;25.88
53512;BMP280;39392;52.832;13.816;2023-07-20T11:36:56;101010.72;;;25.88
53512;BMP280;39392;52.832;13.816;2023-07-20T11:39:26;101017.91;;;25.89
53512;BMP280;39392;52.832;13.816;2023-07-20T11:41:54;101012.41;;;25.89
53512;BMP280;39392;52.832;13.816;2023-07-20T11:44:21;101018.50;;;25.91
53512;BMP280;39392;52.832;13.816;2023-07-20T11:49:34;101019.56;;;25.90
53512;BMP280;39392;52.832;13.816;2023-07-20T11:52:02;101017.66;;;25.90
53512;BMP280;39392;52.832;13.816;2023-07-20T11:54:29;101016.84;;;25.90
53512;BMP280;39392;52.832;13.816;2023-07-20T11:56:56;101019.56;;;25.90
53512;BMP280;39392;52.832;13.816;2023-07-20T11:59:22;101012.41;;;25.89
53512;BMP280;39392;52.832;13.816;2023-07-20T12:01:49;101021.47;;;25.89
53512;BMP280;39392;52.832;13.816;2023-07-20T12:04:16;101020.41;;;25.90
53512;BMP280;39392;52.832;13.816;2023-07-20T12:06:42;101012.41;;;25.89
53512;BMP280;39392;52.832;13.816;2023-07-20T12:09:13;101013.25;;;25.89
53512;BMP280;39392;52.832;13.816;2023-07-20T12:11:40;101008.59;;;25.90
53512;BMP280;39392;52.832;13.816;2023-07-20T12:14:07;101003.34;;;25.88
53512;BMP280;39392;52.832;13.816;2023-07-20T12:16:43;101009.66;;;25.89
53512;BMP280;39392;52.832;13.816;2023-07-20T12:19:11;100998.44;;;25.90
53512;BMP280;39392;52.832;13.816;2023-07-20T12:21:38;101007.75;;;25.89
53512;BMP280;39392;52.832;13.816;2023-07-20T12:24:06;100997.63;;;25.90
53512;BMP280;39392;52.832;13.816;2023-07-20T12:26:33;101007.75;;;25.89
53512;BMP280;39392;52.832;13.816;2023-07-20T12:29:00;101005.84;;;25.90
53512;BMP280;39392;52.832;13.816;2023-07-20T12:31:27;100997.63;;;25.90
53512;BMP280;39392;52.832;13.816;2023-07-20T12:33:54;100992.13;;;25.90
53512;BMP280;39392;52.832;13.816;2023-07-20T12:36:24;100995.94;;;25.89
53512;BMP280;39392;52.832;13.816;2023-07-20T12:38:50;100989.59;;;25.88
53512;BMP280;39392;52.832;13.816;2023-07-20T12:41:17;100982.19;;;25.89
53512;BMP280;39392;52.832;13.816;2023-07-20T12:43:44;100983.28;;;25.88
53512;BMP280;39392;52.832;13.816;2023-07-20T12:46:12;100980.53;;;25.88
53512;BMP280;39392;52.832;13.816;2023-07-20T12:48:40;100974.38;;;25.86
53512;BMP280;39392;52.832;13.816;2023-07-20T12:51:11;100980.09;;;25.84
53512;BMP280;39392;52.832;13.816;2023-07-20T12:53:38;100981.16;;;25.83
53512;BMP280;39392;52.832;13.816;2023-07-20T12:56:05;100985.59;;;25.84
53512;BMP280;39392;52.832;13.816;2023-07-20T12:58:34;100979.47;;;25.82
53512;BMP280;39392;52.832;13.816;2023-07-20T13:01:01;100977.78;;;25.81
53512;BMP280;39392;52.832;13.816;2023-07-20T13:03:28;100982.44;;;25.80
53512;BMP280;39392;52.832;13.816;2023-07-20T13:05:57;100979.06;;;25.78
53512;BMP280;39392;52.832;13.816;2023-07-20T13:08:27;100982.63;;;25.79
53512;BMP280;39392;52.832;13.816;2023-07-20T13:10:54;100969.78;;;25.79
53512;BMP280;39392;52.832;13.816;2023-07-20T13:13:20;100979.06;;;25.78
53512;BMP280;39392;52.832;13.816;2023-07-20T13:15:47;100972.53;;;25.79
53512;BMP280;39392;52.832;13.816;2023-07-20T13:18:14;100968.06;;;25.78
53512;BMP280;39392;52.832;13.816;2023-07-20T13:20:41;100978.00;;;25.79
53512;BMP280;39392;52.832;13.816;2023-07-20T13:23:07;100963.63;;;25.77
53512;BMP280;39392;52.832;13.816;2023-07-20T13:25:34;100959.00;;;25.78
53512;BMP280;39392;52.832;13.816;2023-07-20T13:28:01;100965.53;;;25.77
53512;BMP280;39392;52.832;13.816;2023-07-20T13:30:27;100965.31;;;25.78
53512;BMP280;39392;52.832;13.816;2023-07-20T13:32:54;100969.13;;;25.77
53512;BMP280;39392;52.832;13.816;2023-07-20T13:35:20;100963.41;;;25.79
53512;BMP280;39392;52.832;13.816;2023-07-20T13:37:47;100961.75;;;25.78
53512;BMP280;39392;52.832;13.816;2023-07-20T13:40:14;100962.81;;;25.77
53512;BMP280;39392;52.832;13.816;2023-07-20T13:42:43;100964.47;;;25.78
53512;BMP280;39392;52.832;13.816;2023-07-20T13:45:11;100957.94;;;25.79
53512;BMP280;39392;52.832;13.816;2023-07-20T13:47:38;100947.16;;;25.77
53512;BMP280;39392;52.832;13.816;2023-07-20T13:50:05;100957.09;;;25.78
53512;BMP280;39392;52.832;13.816;2023-07-20T13:52:32;100955.41;;;25.77
53512;BMP280;39392;52.832;13.816;2023-07-20T13:55:02;100956.25;;;25.78
53512;BMP280;39392;52.832;13.816;2023-07-20T13:57:30;100951.81;;;25.77
53512;BMP280;39392;52.832;13.816;2023-07-20T14:00:01;100960.06;;;25.77
53512;BMP280;39392;52.832;13.816;2023-07-20T14:02:28;100952.66;;;25.77
53512;BMP280;39392;52.832;13.816;2023-07-20T14:04:58;100958.16;;;25.77
53512;BMP280;39392;52.832;13.816;2023-07-20T14:07:27;100961.75;;;25.78
53512;BMP280;39392;52.832;13.816;2023-07-20T14:09:55;100963.63;;;25.77
53512;BMP280;39392;52.832;13.816;2023-07-20T14:12:25;100956.25;;;25.78
53512;BMP280;39392;52.832;13.816;2023-07-20T14:14:51;100953.31;;;25.79
53512;BMP280;39392;52.832;13.816;2023-07-20T14:17:18;100966.38;;;25.77
53512;BMP280;39392;52.832;13.816;2023-07-20T14:19:44;100960.06;;;25.77
53512;BMP280;39392;52.832;13.816;2023-07-20T14:22:11;100960.06;;;25.77
53512;BMP280;39392;52.832;13.816;2023-07-20T14:24:38;100957.31;;;25.77